createdAt,value
2023-03-23T15:58:44.170Z,16.40
2023-03-23T16:01:13.113Z,16.30
2023-03-23T16:03:48.869Z,15.80
2023-03-23T16:06:23.725Z,15.70
2023-03-23T16:08:54.244Z,15.60
2023-03-23T16:11:22.504Z,15.60
2023-03-23T16:13:49.768Z,15.60
2023-03-23T16:16:24.819Z,15.70
2023-03-23T16:18:51.479Z,15.80
2023-03-23T16:21:18.042Z,15.90
2023-03-23T16:23:46.226Z,15.80
2023-03-23T16:26:14.489Z,15.70
2023-03-23T16:28:42.463Z,15.80
2023-03-23T16:31:09.869Z,15.70
2023-03-23T16:33:36.695Z,15.70
2023-03-23T16:36:04.256Z,15.60
2023-03-23T16:38:30.928Z,15.60
2023-03-23T16:40:57.568Z,15.60
2023-03-23T16:43:24.278Z,15.50
2023-03-23T16:45:54.693Z,15.40
2023-03-23T16:48:21.368Z,15.40
2023-03-23T16:50:47.975Z,15.40
2023-03-23T16:53:14.563Z,15.30
2023-03-23T16:55:42.112Z,15.30
2023-03-23T16:58:17.011Z,15.30
2023-03-23T17:00:45.819Z,15.20
2023-03-23T17:03:13.206Z,15.20
2023-03-23T17:05:40.098Z,15.10
2023-03-23T17:08:07.071Z,15.20
2023-03-23T17:10:33.731Z,15.30
2023-03-23T17:13:00.860Z,15.30
2023-03-23T17:15:27.580Z,15.40
2023-03-23T17:17:55.178Z,15.40
2023-03-23T17:20:22.853Z,15.20
2023-03-23T17:22:49.882Z,15.30
2023-03-23T17:25:16.550Z,15.20
2023-03-23T17:27:43.237Z,15.10
2023-03-23T17:30:11.071Z,15.10
2023-03-23T17:32:38.534Z,15.10
2023-03-23T17:35:07.001Z,15.00
2023-03-23T17:37:34.350Z,15.00
2023-03-23T17:40:00.924Z,14.90
2023-03-23T17:42:29.122Z,15.00
2023-03-23T17:44:55.779Z,14.90
2023-03-23T17:47:23.733Z,14.90
2023-03-23T17:49:51.086Z,14.90
2023-03-23T17:52:17.745Z,14.80
2023-03-23T17:54:44.406Z,14.90
2023-03-23T17:57:11.259Z,14.90
2023-03-23T17:59:37.993Z,14.80
2023-03-23T18:02:04.714Z,14.60
2023-03-23T18:04:31.370Z,14.60
2023-03-23T18:06:58.742Z,14.60
2023-03-23T18:09:26.097Z,14.50
2023-03-23T18:11:53.179Z,14.50
2023-03-23T18:14:21.354Z,14.50
2023-03-23T18:16:48.249Z,14.50
2023-03-23T18:19:15.248Z,14.50
2023-03-23T18:21:43.383Z,14.50
2023-03-23T18:24:12.424Z,14.50
2023-03-23T18:26:39.202Z,14.50
2023-03-23T18:29:05.913Z,14.50
2023-03-23T18:31:32.851Z,14.40
2023-03-23T18:33:59.917Z,14.50
2023-03-23T18:36:27.350Z,14.50
2023-03-23T18:38:56.534Z,14.50
2023-03-23T18:41:23.929Z,14.50
2023-03-23T18:43:50.809Z,14.50
2023-03-23T18:46:17.631Z,14.40
2023-03-23T18:48:44.306Z,14.40
2023-03-23T18:51:11.280Z,14.40
2023-03-23T18:53:37.909Z,14.40
2023-03-23T18:56:07.826Z,14.40
2023-03-23T18:58:34.476Z,14.30
2023-03-23T19:01:10.449Z,14.30
2023-03-23T19:03:38.572Z,14.30
2023-03-23T19:06:06.102Z,14.20
2023-03-23T19:08:34.703Z,14.20
2023-03-23T19:11:03.803Z,14.20
2023-03-23T19:13:34.032Z,14.20
2023-03-23T19:16:01.221Z,14.20
2023-03-23T19:18:28.193Z,14.20
2023-03-23T19:21:13.022Z,14.20
2023-03-23T19:23:42.228Z,14.20
2023-03-23T19:26:09.710Z,14.10
2023-03-23T19:31:06.200Z,14.10
2023-03-23T19:33:32.814Z,14.10
2023-03-23T19:36:09.302Z,14.10
2023-03-23T19:38:38.323Z,14.10
2023-03-23T19:41:06.315Z,14.20
2023-03-23T19:43:33.751Z,14.20
2023-03-23T19:46:00.718Z,14.20
2023-03-23T19:48:27.807Z,14.20
2023-03-23T19:50:56.251Z,14.20
2023-03-23T19:53:23.509Z,14.20
2023-03-23T19:55:50.946Z,14.20
2023-03-23T19:58:17.830Z,14.20
2023-03-23T20:00:45.778Z,14.30
2023-03-23T20:03:13.007Z,14.20
2023-03-23T20:05:40.840Z,14.20
2023-03-23T20:08:09.787Z,14.10
2023-03-23T20:10:37.374Z,14.20
2023-03-23T20:13:05.205Z,14.30
2023-03-23T20:15:32.118Z,14.30
2023-03-23T20:17:59.466Z,14.20
2023-03-23T20:20:28.017Z,14.30
2023-03-23T20:22:57.323Z,14.30
2023-03-23T20:25:24.864Z,14.20
2023-03-23T20:27:51.558Z,14.20
2023-03-23T20:30:18.827Z,14.20
2023-03-23T20:32:46.352Z,14.30
2023-03-23T20:35:14.486Z,14.20
2023-03-23T20:37:41.294Z,14.30
2023-03-23T20:40:12.892Z,14.20
2023-03-23T20:42:43.539Z,14.30
2023-03-23T20:45:12.042Z,14.30
2023-03-23T20:47:39.201Z,14.20
2023-03-23T20:50:07.445Z,14.30
2023-03-23T20:52:34.990Z,14.20
2023-03-23T20:55:02.367Z,14.30
2023-03-23T20:57:29.233Z,14.30
2023-03-23T20:59:56.164Z,14.30
2023-03-23T21:02:25.735Z,14.20
2023-03-23T21:04:53.044Z,14.20
2023-03-23T21:07:22.971Z,14.20
2023-03-23T21:09:49.888Z,14.20
2023-03-23T21:12:16.521Z,14.10
2023-03-23T21:14:44.799Z,14.10
2023-03-23T21:17:12.022Z,14.10
2023-03-23T21:19:38.842Z,14.10
2023-03-23T21:22:05.552Z,14.10
2023-03-23T21:24:32.347Z,14.00
2023-03-23T21:27:00.819Z,14.00
2023-03-23T21:29:28.243Z,14.10
2023-03-23T21:32:07.435Z,14.10
2023-03-23T21:34:35.895Z,14.10
2023-03-23T21:37:02.547Z,14.00
2023-03-23T21:39:29.259Z,13.90
2023-03-23T21:41:55.863Z,13.90
2023-03-23T21:44:22.916Z,13.90
2023-03-23T21:46:52.002Z,13.90
2023-03-23T21:49:18.628Z,13.80
2023-03-23T21:51:45.247Z,13.80
2023-03-23T21:54:12.416Z,13.80
2023-03-23T21:56:39.421Z,13.70
2023-03-23T21:59:07.633Z,13.60
2023-03-23T22:01:36.594Z,13.60
2023-03-23T22:04:04.540Z,13.60
2023-03-23T22:06:31.351Z,13.60
2023-03-23T22:08:58.303Z,13.50
2023-03-23T22:11:27.385Z,13.50
2023-03-23T22:13:56.050Z,13.50
2023-03-23T22:16:23.520Z,13.40
2023-03-23T22:18:52.212Z,13.40
2023-03-23T22:21:21.773Z,13.40
2023-03-23T22:23:48.968Z,13.40
2023-03-23T22:26:16.498Z,13.40
2023-03-23T22:28:45.580Z,13.40
2023-03-23T22:31:17.404Z,13.30
2023-03-23T22:33:45.455Z,13.30
2023-03-23T22:36:12.458Z,13.30
2023-03-23T22:38:41.954Z,13.30
2023-03-23T22:41:10.851Z,13.20
2023-03-23T22:43:38.028Z,13.10
2023-03-23T22:46:05.519Z,13.20
2023-03-23T22:48:32.723Z,13.20
2023-03-23T22:50:59.937Z,13.10
2023-03-23T22:53:26.634Z,13.10
2023-03-23T22:55:55.544Z,13.00
2023-03-23T22:58:22.777Z,13.00
2023-03-23T23:00:54.598Z,12.90
2023-03-23T23:03:21.290Z,13.00
2023-03-23T23:05:52.466Z,13.00
2023-03-23T23:08:20.459Z,12.90
2023-03-23T23:10:50.186Z,12.90
2023-03-23T23:13:17.603Z,12.90
2023-03-23T23:15:47.624Z,13.00
2023-03-23T23:18:14.886Z,13.00
2023-03-23T23:20:42.175Z,13.00
2023-03-23T23:23:09.840Z,12.90
2023-03-23T23:25:37.043Z,12.90
2023-03-23T23:28:05.856Z,12.90
2023-03-23T23:30:34.651Z,12.90
2023-03-23T23:33:01.882Z,12.90
2023-03-23T23:35:28.879Z,12.90
2023-03-23T23:37:55.616Z,12.90
2023-03-23T23:40:22.741Z,12.90
2023-03-23T23:42:51.117Z,12.80
2023-03-23T23:45:18.893Z,12.90
2023-03-23T23:47:46.461Z,12.90
2023-03-23T23:50:14.452Z,12.80
2023-03-23T23:52:42.568Z,12.80
2023-03-23T23:55:10.818Z,12.90
2023-03-23T23:57:37.744Z,12.90
